Linndale, Ohio
Current Conditions -  °F | °C
As of 6:51 PM on Monday 24 Nov 2014 (Local Time) from KCLE Reporting Station
Overcast Overcast  
Wind Chill: 34°   Ceiling: 3600
Heat Index: 43°   Visibility: 10mi
Dew Point: 32°   Wind: 24mph
Humidity: 65%   Direction: 220°SW
Pressure: 29.68"   Gusts: 37mph
Location:  41.4315°N, 81.8114°W
Report Text: KCLE 242351Z 22021G32KT 10SM OVC036 06/00 A2968 RMK AO2 PK WND 23038/2300 SLP052 T00610000 10150 20061 53034 $
Loading
Personal Weather Stations






























Interactive Weather Map New forecast layout! Learn more

10-Day Weather Forecast

Advertisements
Track Severe Weather on mobile